Time,TemperatureF,DewpointF,PressureIn,WindDirection,WindDirectionDegrees,WindSpeedMPH,WindSpeedGustMPH,Humidity,HourlyPrecipIn,Conditions,Clouds,dailyrainin,SoftwareType,DateUTC
2013-02-03 07:33:00,44.0,44.0,30.18,ENE,67,0.0,0.0,99,0.00,,,0.00,,2013-02-03 15:33:00,
2013-02-03 07:42:00,44.0,44.0,30.18,ENE,67,0.0,0.0,99,0.00,,,0.00,,2013-02-03 15:42:00,
2013-02-03 07:52:00,44.0,44.0,30.18,ENE,67,0.0,0.0,99,0.00,,,0.00,,2013-02-03 15:52:00,
2013-02-03 08:02:00,44.0,44.0,30.19,ENE,67,0.0,0.0,99,0.00,,,0.00,,2013-02-03 16:02:00,
2013-02-03 08:11:00,44.0,44.0,30.19,ENE,67,0.0,0.0,99,0.00,,,0.00,,2013-02-03 16:11:00,
2013-02-03 08:21:00,44.0,44.0,30.19,ENE,67,0.0,0.0,99,0.00,,,0.00,,2013-02-03 16:21:00,
2013-02-03 08:32:00,45.0,45.0,30.20,ENE,67,0.0,0.0,99,0.00,,,0.00,,2013-02-03 16:32:00,
2013-02-03 08:41:00,45.0,45.0,30.20,ENE,67,0.0,0.0,99,0.00,,,0.00,,2013-02-03 16:41:00,
2013-02-03 08:52:00,45.0,45.0,30.20,ENE,67,0.0,2.0,99,0.00,,,0.00,,2013-02-03 16:52:00,
2013-02-03 09:02:00,45.0,45.0,30.20,ENE,67,0.0,1.0,99,0.00,,,0.00,,2013-02-03 17:02:00,
2013-02-03 09:11:00,45.0,45.0,30.20,ENE,67,0.0,1.0,99,0.00,,,0.00,,2013-02-03 17:11:00,
2013-02-03 09:21:00,44.0,43.0,30.20,North,351,1.0,4.0,98,0.00,,,0.00,,2013-02-03 17:21:00,
2013-02-03 09:31:00,45.0,44.0,30.20,North,351,0.0,1.0,98,0.00,,,0.00,,2013-02-03 17:31:00,
2013-02-03 09:42:00,45.0,44.0,30.20,North,351,0.0,1.0,98,0.00,,,0.00,,2013-02-03 17:42:00,
2013-02-03 09:52:00,45.0,44.0,30.21,NNW,343,0.0,1.0,97,0.00,,,0.00,,2013-02-03 17:52:00,
2013-02-03 10:02:00,45.0,44.0,30.21,WSW,257,1.0,3.0,95,0.00,,,0.00,,2013-02-03 18:02:00,
2013-02-03 10:11:00,45.0,44.0,30.21,WSW,257,1.0,3.0,95,0.00,,,0.00,,2013-02-03 18:11:00,
2013-02-03 10:22:00,46.0,45.0,30.21,SSW,202,1.0,2.0,95,0.00,,,0.00,,2013-02-03 18:22:00,
2013-02-03 10:32:00,46.0,44.0,30.21,SSW,197,0.0,2.0,93,0.00,,,0.00,,2013-02-03 18:32:00,
2013-02-03 10:41:00,46.0,44.0,30.21,SSW,197,0.0,2.0,93,0.00,,,0.00,,2013-02-03 18:41:00,
2013-02-03 10:51:00,47.0,45.0,30.21,SSW,196,1.0,3.0,93,0.00,,,0.00,,2013-02-03 18:51:00,
2013-02-03 11:02:00,49.0,46.0,30.20,ESE,121,1.0,3.0,88,0.00,,,0.00,,2013-02-03 19:02:00,
2013-02-03 11:11:00,49.0,46.0,30.20,ESE,121,1.0,3.0,88,0.00,,,0.00,,2013-02-03 19:11:00,
2013-02-03 11:21:00,51.0,46.0,30.19,SE,130,1.0,3.0,84,0.00,,,0.00,,2013-02-03 19:21:00,
2013-02-03 11:31:00,53.0,47.0,30.19,ENE,66,1.0,2.0,79,0.00,,,0.00,,2013-02-03 19:31:00,
2013-02-03 11:41:00,53.0,47.0,30.19,ENE,66,1.0,2.0,79,0.00,,,0.00,,2013-02-03 19:41:00,
2013-02-03 11:51:00,53.0,46.0,30.18,North,349,1.0,3.0,76,0.00,,,0.00,,2013-02-03 19:51:00,
2013-02-03 12:01:00,55.0,48.0,30.18,South,175,1.0,2.0,76,0.00,,,0.00,,2013-02-03 20:01:00,
2013-02-03 12:11:00,55.0,48.0,30.18,South,175,1.0,2.0,76,0.00,,,0.00,,2013-02-03 20:11:00,
2013-02-03 12:21:00,56.0,47.0,30.17,WSW,248,1.0,4.0,73,0.00,,,0.00,,2013-02-03 20:21:00,
2013-02-03 12:32:00,57.0,48.0,30.16,WSW,256,1.0,3.0,71,0.00,,,0.00,,2013-02-03 20:32:00,
2013-02-03 12:42:00,57.0,48.0,30.16,WSW,256,1.0,3.0,71,0.00,,,0.00,,2013-02-03 20:42:00,
2013-02-03 12:52:00,57.0,47.0,30.16,NW,326,1.0,3.0,70,0.00,,,0.00,,2013-02-03 20:52:00,
2013-02-03 13:02:00,58.0,47.0,30.16,NNW,344,2.0,5.0,68,0.00,,,0.00,,2013-02-03 21:02:00,
2013-02-03 13:11:00,58.0,47.0,30.16,NNW,344,2.0,5.0,68,0.00,,,0.00,,2013-02-03 21:11:00,
2013-02-03 13:21:00,58.0,48.0,30.16,SW,232,1.0,3.0,69,0.00,,,0.00,,2013-02-03 21:21:00,
2013-02-03 13:32:00,59.0,48.0,30.15,West,266,2.0,4.0,66,0.00,,,0.00,,2013-02-03 21:32:00,
2013-02-03 13:42:00,59.0,48.0,30.15,West,266,2.0,4.0,66,0.00,,,0.00,,2013-02-03 21:42:00,
2013-02-03 13:51:00,60.0,49.0,30.15,WNW,289,1.0,4.0,66,0.00,,,0.00,,2013-02-03 21:51:00,
2013-02-03 14:01:00,60.0,48.0,30.14,South,188,2.0,4.0,64,0.00,,,0.00,,2013-02-03 22:01:00,
2013-02-03 14:11:00,60.0,48.0,30.14,South,188,2.0,4.0,64,0.00,,,0.00,,2013-02-03 22:11:00,
2013-02-03 14:21:00,60.0,48.0,30.13,SSE,167,3.0,5.0,64,0.00,,,0.00,,2013-02-03 22:21:00,
2013-02-03 14:31:00,60.0,48.0,30.12,SSE,164,1.0,4.0,65,0.00,,,0.00,,2013-02-03 22:31:00,
2013-02-03 14:41:00,60.0,48.0,30.12,SSE,164,1.0,4.0,65,0.00,,,0.00,,2013-02-03 22:41:00,
2013-02-03 14:51:00,61.0,48.0,30.12,South,178,2.0,3.0,63,0.00,,,0.00,,2013-02-03 22:51:00,
2013-02-03 15:01:00,60.0,47.0,30.12,WSW,246,2.0,4.0,63,0.00,,,0.00,,2013-02-03 23:01:00,
2013-02-03 15:11:00,60.0,47.0,30.12,WSW,246,2.0,4.0,63,0.00,,,0.00,,2013-02-03 23:11:00,
2013-02-03 15:21:00,61.0,48.0,30.12,WSW,250,1.0,4.0,62,0.00,,,0.00,,2013-02-03 23:21:00,
2013-02-03 15:32:00,61.0,47.0,30.11,SSE,153,2.0,4.0,61,0.00,,,0.00,,2013-02-03 23:32:00,
2013-02-03 15:41:00,61.0,47.0,30.11,SSE,153,2.0,4.0,61,0.00,,,0.00,,2013-02-03 23:41:00,
2013-02-03 15:52:00,61.0,48.0,30.11,South,175,2.0,4.0,62,0.00,,,0.00,,2013-02-03 23:52:00,
2013-02-03 16:01:00,61.0,47.0,30.11,South,176,2.0,3.0,61,0.00,,,0.00,,2013-02-04 00:01:00,
2013-02-03 16:11:00,61.0,47.0,30.11,South,176,2.0,3.0,61,0.00,,,0.00,,2013-02-04 00:11:00,
2013-02-03 16:21:00,61.0,48.0,30.11,SSW,200,2.0,4.0,63,0.00,,,0.00,,2013-02-04 00:21:00,
2013-02-03 16:31:00,58.0,48.0,30.11,SSE,160,1.0,3.0,69,0.00,,,0.00,,2013-02-04 00:31:00,
2013-02-03 16:41:00,58.0,48.0,30.11,SSE,160,1.0,3.0,69,0.00,,,0.00,,2013-02-04 00:41:00,
2013-02-03 16:51:00,56.0,48.0,30.11,SSE,150,1.0,3.0,74,0.00,,,0.00,,2013-02-04 00:51:00,
2013-02-03 17:01:00,55.0,48.0,30.11,SE,139,0.0,3.0,77,0.00,,,0.00,,2013-02-04 01:01:00,
2013-02-03 17:11:00,55.0,48.0,30.11,SE,139,0.0,3.0,77,0.00,,,0.00,,2013-02-04 01:11:00,
2013-02-03 17:21:00,54.0,47.0,30.11,SE,126,0.0,1.0,78,0.00,,,0.00,,2013-02-04 01:21:00,
2013-02-03 17:31:00,53.0,47.0,30.11,SE,126,0.0,2.0,79,0.00,,,0.00,,2013-02-04 01:31:00,
2013-02-03 17:41:00,53.0,47.0,30.11,SE,126,0.0,2.0,79,0.00,,,0.00,,2013-02-04 01:41:00,
2013-02-03 17:51:00,51.0,46.0,30.11,SE,126,0.0,2.0,83,0.00,,,0.00,,2013-02-04 01:51:00,
2013-02-03 18:01:00,50.0,45.0,30.11,SE,126,0.0,1.0,84,0.00,,,0.00,,2013-02-04 02:01:00,
2013-02-03 18:11:00,50.0,45.0,30.11,SE,126,0.0,1.0,84,0.00,,,0.00,,2013-02-04 02:11:00,
2013-02-03 18:21:00,49.0,45.0,30.11,SE,126,0.0,1.0,85,0.00,,,0.00,,2013-02-04 02:21:00,
2013-02-03 18:31:00,48.0,45.0,30.11,SE,126,0.0,1.0,88,0.00,,,0.00,,2013-02-04 02:31:00,
2013-02-03 18:41:00,48.0,45.0,30.11,SE,126,0.0,1.0,88,0.00,,,0.00,,2013-02-04 02:41:00,
2013-02-03 18:52:00,47.0,44.0,30.12,SE,126,0.0,1.0,89,0.00,,,0.00,,2013-02-04 02:52:00,
2013-02-03 19:01:00,46.0,43.0,30.11,SE,126,0.0,1.0,89,0.00,,,0.00,,2013-02-04 03:01:00,
2013-02-03 19:11:00,45.0,43.0,30.11,SE,126,0.0,1.0,92,0.00,,,0.00,,2013-02-04 03:11:00,
2013-02-03 19:21:00,45.0,43.0,30.11,SE,126,0.0,1.0,92,0.00,,,0.00,,2013-02-04 03:21:00,
2013-02-03 19:31:00,44.0,42.0,30.12,SE,126,0.0,1.0,92,0.00,,,0.00,,2013-02-04 03:31:00,
2013-02-03 19:41:00,44.0,42.0,30.12,SE,126,0.0,1.0,92,0.00,,,0.00,,2013-02-04 03:41:00,
2013-02-03 19:51:00,44.0,42.0,30.11,SE,126,0.0,0.0,92,0.00,,,0.00,,2013-02-04 03:51:00,
2013-02-03 19:52:00,43.0,42.0,30.11,SE,126,0.0,1.0,95,0.00,,,0.00,,2013-02-04 03:52:00,
2013-02-03 20:01:00,43.0,41.0,30.11,SE,126,0.0,1.0,94,0.00,,,0.00,,2013-02-04 04:01:00,
2013-02-03 20:11:00,43.0,41.0,30.11,SE,126,0.0,1.0,94,0.00,,,0.00,,2013-02-04 04:11:00,
2013-02-03 20:21:00,43.0,42.0,30.11,SE,126,0.0,1.0,95,0.00,,,0.00,,2013-02-04 04:21:00,
2013-02-03 20:31:00,43.0,42.0,30.11,SE,126,0.0,1.0,95,0.00,,,0.00,,2013-02-04 04:31:00,
2013-02-03 20:41:00,43.0,42.0,30.11,SE,126,0.0,1.0,95,0.00,,,0.00,,2013-02-04 04:41:00,